createdAt,value
2017-07-18T00:01:08.260Z,16.30
2017-07-18T00:05:55.637Z,16.00
2017-07-18T00:10:42.275Z,16.00
2017-07-18T00:15:28.999Z,16.10
2017-07-18T00:20:15.656Z,16.10
2017-07-18T00:25:02.429Z,16.00
2017-07-18T00:29:49.039Z,15.80
2017-07-18T00:34:35.657Z,15.70
2017-07-18T00:39:22.254Z,15.70
2017-07-18T00:44:09.614Z,15.70
2017-07-18T00:48:56.295Z,15.60
2017-07-18T00:53:43.702Z,15.60
2017-07-18T00:58:30.351Z,15.60
2017-07-18T01:03:17.736Z,15.30
2017-07-18T01:08:04.401Z,15.30
2017-07-18T01:12:51.022Z,15.30
2017-07-18T01:17:37.711Z,15.10
2017-07-18T01:22:24.320Z,15.00
2017-07-18T01:27:10.962Z,15.00
2017-07-18T01:31:57.631Z,15.00
2017-07-18T01:36:44.256Z,14.80
2017-07-18T01:41:30.922Z,14.90
2017-07-18T01:46:17.700Z,14.90
2017-07-18T01:51:04.338Z,14.90
2017-07-18T01:55:50.940Z,14.90
2017-07-18T02:00:37.762Z,14.70
2017-07-18T02:05:24.482Z,14.70
2017-07-18T02:10:11.149Z,14.60
2017-07-18T02:14:57.861Z,14.80
2017-07-18T02:19:44.539Z,14.70
2017-07-18T02:24:31.986Z,14.40
2017-07-18T02:29:18.609Z,14.40
2017-07-18T02:34:05.269Z,14.50
2017-07-18T02:38:51.934Z,14.50
2017-07-18T02:43:38.629Z,14.50
2017-07-18T02:48:25.307Z,14.40
2017-07-18T02:53:11.921Z,14.40
2017-07-18T02:57:58.554Z,14.30
2017-07-18T03:02:45.257Z,14.30
2017-07-18T03:07:32.026Z,14.10
2017-07-18T03:12:18.762Z,14.10
2017-07-18T03:17:05.447Z,14.10
2017-07-18T03:21:52.136Z,14.20
2017-07-18T03:26:38.777Z,14.20
2017-07-18T03:31:25.402Z,14.00
2017-07-18T03:36:12.057Z,14.00
2017-07-18T03:40:58.750Z,13.90
2017-07-18T03:45:45.363Z,14.00
2017-07-18T03:50:32.087Z,14.20
2017-07-18T03:55:18.745Z,14.10
2017-07-18T04:00:12.265Z,14.00
2017-07-18T04:04:59.191Z,14.10
2017-07-18T04:09:45.839Z,14.00
2017-07-18T04:14:32.517Z,13.90
2017-07-18T04:19:19.908Z,14.10
2017-07-18T04:24:06.596Z,14.10
2017-07-18T04:28:53.279Z,14.10
2017-07-18T04:33:39.899Z,14.20
2017-07-18T04:38:27.029Z,14.10
2017-07-18T04:43:13.681Z,14.00
2017-07-18T04:48:00.342Z,14.10
2017-07-18T04:52:46.987Z,14.30
2017-07-18T04:57:33.759Z,14.40
2017-07-18T05:02:20.435Z,14.60
2017-07-18T05:07:07.133Z,15.00
2017-07-18T05:11:53.809Z,15.20
2017-07-18T05:16:40.460Z,15.30
2017-07-18T05:21:27.237Z,15.40
2017-07-18T05:26:14.915Z,15.90
2017-07-18T05:31:01.598Z,15.90
2017-07-18T05:35:48.941Z,16.40
2017-07-18T05:40:35.611Z,16.40
2017-07-18T05:45:22.283Z,16.60
2017-07-18T05:50:09.713Z,17.10
2017-07-18T05:54:56.357Z,17.00
2017-07-18T05:59:43.001Z,17.30
2017-07-18T06:04:29.622Z,17.60
2017-07-18T06:09:16.369Z,17.80
2017-07-18T06:14:03.098Z,18.00
2017-07-18T06:18:49.858Z,18.30
2017-07-18T06:23:37.268Z,18.80
2017-07-18T06:28:23.924Z,18.70
2017-07-18T06:33:10.591Z,19.30
2017-07-18T06:37:57.268Z,19.60
2017-07-18T06:42:43.933Z,20.10
2017-07-18T06:47:30.555Z,20.20
2017-07-18T06:52:17.202Z,20.70
2017-07-18T06:57:04.639Z,21.40
2017-07-18T07:01:51.374Z,21.30
2017-07-18T07:06:38.832Z,22.40
2017-07-18T07:11:25.465Z,22.40
2017-07-18T07:16:12.097Z,22.90
2017-07-18T07:20:58.714Z,23.00
2017-07-18T07:25:45.410Z,22.80
2017-07-18T07:30:32.115Z,23.30
2017-07-18T07:35:19.481Z,23.50
2017-07-18T07:40:06.182Z,23.50
2017-07-18T07:44:52.852Z,24.10
2017-07-18T07:49:39.514Z,24.70
2017-07-18T07:54:26.937Z,24.90
2017-07-18T07:59:13.597Z,24.90
2017-07-18T08:04:00.311Z,25.30
2017-07-18T08:08:46.957Z,25.70
2017-07-18T08:13:33.652Z,25.90
2017-07-18T08:18:20.366Z,26.10
2017-07-18T08:23:06.998Z,26.60
2017-07-18T08:27:53.651Z,26.40
2017-07-18T08:32:40.293Z,25.70
2017-07-18T08:37:26.938Z,26.10
2017-07-18T08:42:14.375Z,27.60
2017-07-18T08:47:01.166Z,27.50
2017-07-18T08:51:47.903Z,28.10
2017-07-18T08:56:34.600Z,28.40
2017-07-18T09:01:21.330Z,28.50
2017-07-18T09:06:07.984Z,28.90
2017-07-18T09:10:55.390Z,29.20
2017-07-18T09:15:42.062Z,29.20
2017-07-18T09:20:28.725Z,29.30
2017-07-18T09:25:15.366Z,29.40
2017-07-18T09:30:02.050Z,29.50
2017-07-18T09:34:48.668Z,29.70
2017-07-18T09:39:35.269Z,29.90
2017-07-18T09:44:21.922Z,30.30
2017-07-18T09:49:08.561Z,30.20
2017-07-18T09:53:55.179Z,30.80
2017-07-18T09:58:41.845Z,31.00
2017-07-18T10:03:28.657Z,30.90
2017-07-18T10:08:16.075Z,31.30
2017-07-18T10:13:02.737Z,31.20
2017-07-18T10:17:49.673Z,31.30
2017-07-18T10:22:36.315Z,31.40
2017-07-18T10:27:22.933Z,31.30
2017-07-18T10:32:09.731Z,31.50
2017-07-18T10:36:56.417Z,31.50
2017-07-18T10:41:43.902Z,31.40
2017-07-18T10:46:30.587Z,31.40
2017-07-18T10:51:18.048Z,32.10
2017-07-18T10:56:04.709Z,32.00
2017-07-18T11:00:51.378Z,31.90
2017-07-18T11:05:38.157Z,32.00
2017-07-18T11:10:24.823Z,31.60
2017-07-18T11:15:11.546Z,31.50
2017-07-18T11:19:58.269Z,31.90
2017-07-18T11:24:44.961Z,31.90
2017-07-18T11:29:31.599Z,31.70
2017-07-18T11:34:18.983Z,32.80
2017-07-18T11:39:05.710Z,32.80
2017-07-18T11:43:52.439Z,32.40
2017-07-18T11:48:39.175Z,33.20
2017-07-18T11:53:25.865Z,32.70
2017-07-18T11:58:12.611Z,32.70
2017-07-18T12:02:59.436Z,33.30
2017-07-18T12:07:46.184Z,33.20
2017-07-18T12:12:33.557Z,32.90
2017-07-18T12:17:20.188Z,32.80
2017-07-18T12:22:06.827Z,32.70
2017-07-18T12:26:53.969Z,32.70
2017-07-18T12:31:40.761Z,32.90
2017-07-18T12:36:27.470Z,33.30
2017-07-18T12:41:14.221Z,33.40
2017-07-18T12:46:00.993Z,33.00
2017-07-18T12:50:48.425Z,31.60
2017-07-18T12:55:35.929Z,31.90
2017-07-18T13:00:22.653Z,31.90
2017-07-18T13:05:09.353Z,31.00
2017-07-18T13:09:56.122Z,30.50
2017-07-18T13:14:42.849Z,30.20
2017-07-18T13:19:29.486Z,30.00
2017-07-18T13:24:18.022Z,29.70
2017-07-18T13:29:04.724Z,29.70
2017-07-18T13:33:51.425Z,29.80
2017-07-18T13:38:38.107Z,29.80
2017-07-18T13:43:25.756Z,30.00
2017-07-18T13:48:13.203Z,30.00
2017-07-18T13:53:00.203Z,30.00
2017-07-18T13:57:46.834Z,29.80
2017-07-18T14:02:33.518Z,29.70
2017-07-18T14:07:20.186Z,29.60
2017-07-18T14:12:06.839Z,29.50
2017-07-18T14:16:53.747Z,29.70
2017-07-18T14:21:40.392Z,29.50
2017-07-18T14:26:27.027Z,29.50
2017-07-18T14:31:13.702Z,29.60
2017-07-18T14:36:00.385Z,29.50
2017-07-18T14:40:47.055Z,29.50
2017-07-18T14:45:33.689Z,29.50
2017-07-18T14:50:20.352Z,29.60
2017-07-18T14:55:07.004Z,29.70
2017-07-18T14:59:53.707Z,29.70
2017-07-18T15:04:41.150Z,29.60
2017-07-18T15:09:28.631Z,29.50
2017-07-18T15:14:15.287Z,29.50
2017-07-18T15:19:02.047Z,29.40
2017-07-18T15:23:49.512Z,29.50
2017-07-18T15:28:36.148Z,29.50
2017-07-18T15:33:22.803Z,29.50
2017-07-18T15:38:09.441Z,29.40
2017-07-18T15:42:56.930Z,29.30
2017-07-18T15:47:43.598Z,29.30
2017-07-18T15:52:30.961Z,29.20
2017-07-18T15:57:17.640Z,29.20
2017-07-18T16:02:04.296Z,29.10
2017-07-18T16:06:50.955Z,29.10
2017-07-18T16:11:37.712Z,29.00
2017-07-18T16:16:24.479Z,29.00
2017-07-18T16:21:11.110Z,28.80
2017-07-18T16:25:57.786Z,28.80
2017-07-18T16:30:45.204Z,29.10
2017-07-18T16:35:31.994Z,29.10
2017-07-18T16:40:18.674Z,29.10
2017-07-18T16:45:06.174Z,28.90
2017-07-18T16:49:52.879Z,28.90
2017-07-18T16:54:40.633Z,28.80
2017-07-18T16:59:27.263Z,28.50
2017-07-18T17:04:13.952Z,28.40
2017-07-18T17:09:00.603Z,28.20
2017-07-18T17:13:47.300Z,28.10
2017-07-18T17:18:34.371Z,28.00
2017-07-18T17:23:20.953Z,27.90
2017-07-18T17:28:07.625Z,27.90
2017-07-18T17:32:54.346Z,27.80
2017-07-18T17:37:40.997Z,27.60
2017-07-18T17:42:27.702Z,27.40
2017-07-18T17:47:15.094Z,27.20
2017-07-18T17:52:02.490Z,27.00
2017-07-18T17:56:56.241Z,26.90
2017-07-18T18:01:42.872Z,26.80
2017-07-18T18:06:30.288Z,26.60
2017-07-18T18:11:17.062Z,26.60
2017-07-18T18:16:03.742Z,26.50
2017-07-18T18:20:50.551Z,26.30
2017-07-18T18:25:37.292Z,26.20
2017-07-18T18:30:24.026Z,26.20
2017-07-18T18:35:11.407Z,26.00
2017-07-18T18:39:58.037Z,26.00
2017-07-18T18:44:44.745Z,25.90
2017-07-18T18:49:31.421Z,25.90
2017-07-18T18:54:18.885Z,25.60
2017-07-18T18:59:05.615Z,25.60
2017-07-18T19:03:52.375Z,25.60
2017-07-18T19:08:39.076Z,25.40
2017-07-18T19:13:25.804Z,25.30
2017-07-18T19:18:12.503Z,25.00
2017-07-18T19:22:59.194Z,24.90
2017-07-18T19:27:46.584Z,24.40
2017-07-18T19:32:33.303Z,24.40
2017-07-18T19:37:20.379Z,24.20
2017-07-18T19:42:07.972Z,23.60
2017-07-18T19:46:54.680Z,23.60
2017-07-18T19:51:41.391Z,23.50
2017-07-18T19:56:28.338Z,23.50
2017-07-18T20:01:15.011Z,23.20
2017-07-18T20:06:02.060Z,22.90
2017-07-18T20:10:49.500Z,22.90
2017-07-18T20:15:36.169Z,22.80
2017-07-18T20:20:22.898Z,22.50
2017-07-18T20:25:09.594Z,22.50
2017-07-18T20:29:56.232Z,22.60
2017-07-18T20:34:42.903Z,22.90
2017-07-18T20:39:30.324Z,23.00
2017-07-18T20:44:17.072Z,23.00
2017-07-18T20:49:03.706Z,23.00
2017-07-18T20:53:50.424Z,23.00
2017-07-18T20:58:37.081Z,22.80
2017-07-18T21:03:24.341Z,22.80
2017-07-18T21:08:10.992Z,22.70
2017-07-18T21:12:57.662Z,22.50
2017-07-18T21:17:44.276Z,22.20
2017-07-18T21:22:31.004Z,22.10
2017-07-18T21:27:17.645Z,21.90
2017-07-18T21:32:05.015Z,21.90
2017-07-18T21:36:51.694Z,21.80
2017-07-18T21:41:38.327Z,21.80
2017-07-18T21:46:25.717Z,21.60
2017-07-18T21:51:12.344Z,21.50
2017-07-18T21:55:58.969Z,21.50
2017-07-18T22:00:45.593Z,21.40
2017-07-18T22:05:32.238Z,21.30
2017-07-18T22:10:19.043Z,21.30
2017-07-18T22:15:05.787Z,21.40
2017-07-18T22:19:52.438Z,21.30
2017-07-18T22:24:39.081Z,21.20
2017-07-18T22:29:25.705Z,21.20
2017-07-18T22:34:12.351Z,20.90
2017-07-18T22:38:58.993Z,20.60
2017-07-18T22:43:45.634Z,20.70
2017-07-18T22:48:33.496Z,20.60
2017-07-18T22:53:20.163Z,20.60
2017-07-18T22:58:06.812Z,20.60
2017-07-18T23:02:54.188Z,20.50
2017-07-18T23:07:40.792Z,20.50
2017-07-18T23:12:27.475Z,20.60
2017-07-18T23:17:14.430Z,20.50
2017-07-18T23:22:01.048Z,20.30
2017-07-18T23:26:47.673Z,20.30
2017-07-18T23:31:34.294Z,20.20
2017-07-18T23:36:20.915Z,20.00
2017-07-18T23:41:07.561Z,19.90
2017-07-18T23:45:54.525Z,19.70
2017-07-18T23:50:41.146Z,19.60
2017-07-18T23:55:27.762Z,19.40
